Details From EGNM - Leeds Bradford
To EGCK - Caernarfon
Flight Number -
Tags Generated
Created
Modified
Stats Distance 106 nm / 197 km
Max Altitude 0 ft / 0 m
Waypoints 2
Social Downloads 1
Likes 0
Share VATSIM

Download

Looking for another format? Having issues loading an existing format? Contact us
Advertisement - Login to hide

Notes

Generated

Route

EGNM EGCK

ID Type Via Altitude Latitude Longitude Leg Dist Tot Dist Heading (true) Name
O EGNM APT - 0 ft / 0 m 53.87335˚ -1.67205˚ - 0 nm - -
O EGCK APT - 0 ft / 0 m 53.10056˚ -4.34333˚ 106 nm 106 nm 245° / 243° Caernarfon

Altitude Profile

Advertisement - Login to hide

EGNM

Details ICAO EGNM (LBA)
Name Leeds Bradford
Region United Kingdom
Timezone Europe/London (UTC+0.0)
Stats Elevation 681 ft / 208 m (AMSL)
Location 53.866027° -1.660778°
Runways 1
Magnetic Variation 1.300° W

METAR

EGNM 110550Z 01008KT 340V040 CAVOK M00/M05 Q0984

Decode

TAF

TAF TAF EGNM 110459Z 1106/1206 34006KT 9999 FEW020

Decode

Departure Runways

ID Width Length Bearing (true) Bearing (mag) Surface Threshold Offset Overrun Length
14 151 ft / 46 m 7,377 ft / 2,248 m 137.79° 139.09° Concrete 1,024 ft / 312 m 46 ft / 14 m
32 151 ft / 46 m 7,377 ft / 2,248 m 317.81° 319.11° Concrete 899 ft / 274 m 49 ft / 15 m

EGCK

Details ICAO EGCK
Name Caernarfon
Region United Kingdom
Timezone Europe/London (UTC+0.0)
Stats Elevation 13 ft / 4 m (AMSL)
Location 53.103081° -4.338717°
Runways 2
Magnetic Variation 2.212° W

METAR

EGCK 110550Z AUTO 05004KT 9999 NCD M01/M03 Q0986

Decode

TAF

Not found

Destination Runways

ID Width Length Bearing (true) Bearing (mag) Surface Threshold Offset Overrun Length
02 75 ft / 23 m 3,499 ft / 1,066 m 13.18° 15.39° Asphalt 253 ft / 77 m 3 ft / 1 m
08 75 ft / 23 m 2,995 ft / 913 m 70.77° 72.98° Asphalt 151 ft / 46 m 0 ft / 0 m
20 75 ft / 23 m 3,499 ft / 1,066 m 193.18° 195.39° Asphalt 0 ft / 0 m 0 ft / 0 m
26 75 ft / 23 m 2,995 ft / 913 m 250.78° 252.99° Asphalt 266 ft / 81 m 0 ft / 0 m

Popular Alternatives